الصفحة الرئيسية
METAR-TAF:

METAR-TAF

مطار :

سكاكا, السعودية

مطار الجوف المحلي

دائرة عرض: 29-47N, خط طول: 040-06E, ارتفاع: 689 متر

مراقبة الطقس الحالي

تاريخ ووقت الإصدار 45 دقيقة قبل الساعة 09:00UTC
ريح 7 عقدة من الشرق/الجنوب الشرقي
درجة الحرارة 16°درجة مئوية
الرطوبة 27%
ضغط 1023 hPa
الرؤية 10 كم أو أكثر
الغيوم لا تقل 1500 م ولا وجود لمزنة ركامية السحاب الأسود

METAR: OESK 080900Z 12007KT CAVOK 16/M03 Q1023 NOSIG

زمن: 12:45 (09:45 UTC)

توقعات

تاريخ ووقت الإصدار 10ساعات و 45 دقيقة قبل الساعة 23:00UTC
التوقعات صالحة من08 الساعة 00 UTC إلى 09 الساعة 06 UTC
ريح 3 عقدةمن اتجاهات متغيرة
الرؤية: 7000 متر
غيوم قليلة على ارتفاع 4000 قدم
أصبح
من 08 الساعة 06 UTC إلى 08 الساعة 08 UTC
ريح 6 عقدة من الشرق تتزايد حتى 16 عقدة

TAF: OESK 072300Z 0800/0906 VRB03KT 7000 FEW040 BECMG 0806/0808 09006G16KT

أرصاد الطقس والتوقعات من أكثر من 4000 مطار (تقارير الطقس للمطار METAR والتنبؤ بالطقس بالمطارTAF).

المحطات المتاحة هي النقط الصفراء والحمراء على الخريطة.

حرك المؤشر فوق النقطة لمعرفة اسم المحطة.

ثم انقر لمعرفة أرصاد وتوقعات الطقس.

لتغيير الخارطة: اضغط على الأزرار الخضراء مع رمز الصليب الأسود للتكبير. على الزر الأخضر مع شرطة للتصغير، أو على الأسهم الخضراء للخرائط المجاورة.


METAR-TAF: